Time;durP1;ratioP1;P1;durP2;ratioP2;P2;SDS_P1;SDS_P2;PMS_P1;PMS_P2;Temp;Humidity;BMP_temperature;BMP_pressure;BME280_temperature;BME280_humidity;BME280_pressure;Samples;Min_cycle;Max_cycle;Signal;HPM_P1;HPM_P2
2024/01/29 00:00:46;;;;;;;;;;;;;;;17.40;38.38;102626.00;5026253;28;1109;-54
2024/01/29 00:03:12;;;;;;;;;;;;;;;16.86;39.29;102616.75;5026104;28;1040;-53
2024/01/29 00:05:37;;;;;;;;;;;;;;;16.16;40.63;102620.66;5026413;28;1182;-52
2024/01/29 00:08:03;;;;;;;;;;;;;;;15.82;41.54;102614.63;5032983;28;1116;-51
2024/01/29 00:10:29;;;;;;;;;;;;;;;15.55;42.23;102606.56;5032241;28;1116;-49
2024/01/29 00:12:54;;;;;;;;;;;;;;;17.02;39.04;102594.16;5032124;28;1906;-52
2024/01/29 00:15:20;;;;;;;;;;;;;;;17.44;37.83;102599.66;5026197;28;1119;-53
2024/01/29 00:17:45;;;;;;;;;;;;;;;16.34;40.24;102596.00;5029559;28;2781;-53
2024/01/29 00:20:11;;;;;;;;;;;;;;;15.90;41.13;102590.50;5032372;28;1536;-52
2024/01/29 00:22:37;;;;;;;;;;;;;;;15.55;42.06;102603.84;5032353;28;1060;-54
2024/01/29 00:25:02;;;;;;;;;;;;;;;16.45;40.16;102585.31;5019298;28;893;-53
2024/01/29 00:27:28;;;;;;;;;;;;;;;17.56;37.96;102590.63;5027880;28;1539;-52
2024/01/29 00:29:53;;;;;;;;;;;;;;;16.75;39.40;102597.22;5017923;28;1111;-53
2024/01/29 00:32:19;;;;;;;;;;;;;;;16.09;40.73;102598.78;5030143;28;1906;-53
2024/01/29 00:34:46;;;;;;;;;;;;;;;15.72;41.65;102596.75;5032368;28;1151;-54
2024/01/29 00:37:11;;;;;;;;;;;;;;;16.51;40.05;102598.13;5026128;28;866;-53
2024/01/29 00:39:37;;;;;;;;;;;;;;;17.62;37.83;102590.50;5019210;28;1024;-53
2024/01/29 00:42:03;;;;;;;;;;;;;;;16.58;39.83;102593.41;5025773;28;1507;-54
2024/01/29 00:44:28;;;;;;;;;;;;;;;16.06;40.86;102578.13;5025859;28;1183;-53
2024/01/29 00:46:54;;;;;;;;;;;;;;;15.72;41.52;102594.00;5030704;28;2646;-54
2024/01/29 00:49:19;;;;;;;;;;;;;;;16.57;39.99;102589.81;5031183;28;1092;-55
2024/01/29 00:51:45;;;;;;;;;;;;;;;17.68;37.61;102598.91;5018988;28;1183;-54
2024/01/29 00:54:10;;;;;;;;;;;;;;;16.74;39.41;102600.19;5018246;28;1906;-55
2024/01/29 00:56:36;;;;;;;;;;;;;;;16.14;40.81;102600.84;5031878;28;1028;-54
2024/01/29 00:59:01;;;;;;;;;;;;;;;15.76;41.60;102599.03;5030878;28;1097;-54
2024/01/29 01:01:27;;;;;;;;;;;;;;;16.11;41.10;102604.06;5029119;28;1217;-54
2024/01/29 01:03:53;;;;;;;;;;;;;;;17.50;37.94;102610.81;5038114;28;1090;-55
2024/01/29 01:06:18;;;;;;;;;;;;;;;17.09;38.44;102602.31;5024955;28;1130;-55
2024/01/29 01:08:44;;;;;;;;;;;;;;;16.28;40.51;102612.53;5036073;28;993;-54
2024/01/29 01:11:09;;;;;;;;;;;;;;;15.86;41.23;102599.41;5032572;28;1063;-54
2024/01/29 01:13:35;;;;;;;;;;;;;;;15.64;41.92;102613.47;5032211;28;1976;-54
2024/01/29 01:16:00;;;;;;;;;;;;;;;16.60;39.79;102605.00;5037021;28;2685;-54
2024/01/29 01:18:26;;;;;;;;;;;;;;;17.64;37.58;102615.03;5030407;28;1040;-54
2024/01/29 01:20:51;;;;;;;;;;;;;;;16.85;39.01;102613.16;5025066;28;1222;-54
2024/01/29 01:23:17;;;;;;;;;;;;;;;16.18;40.41;102618.53;5037992;28;995;-50
2024/01/29 01:25:42;;;;;;;;;;;;;;;15.76;41.36;102632.78;5027367;28;984;-52
2024/01/29 01:28:08;;;;;;;;;;;;;;;15.85;41.45;102619.66;5017894;28;992;-55
2024/01/29 01:30:34;;;;;;;;;;;;;;;17.34;38.41;102640.66;5023282;28;1056;-55
2024/01/29 01:33:00;;;;;;;;;;;;;;;17.06;38.59;102649.50;5037988;28;1934;-53
2024/01/29 01:35:25;;;;;;;;;;;;;;;16.31;40.43;102650.50;5032769;28;1122;-53
2024/01/29 01:37:51;;;;;;;;;;;;;;;15.81;41.26;102651.34;5032898;28;900;-52
2024/01/29 01:40:16;;;;;;;;;;;;;;;15.56;41.81;102643.91;5024443;28;1127;-50
2024/01/29 01:42:43;;;;;;;;;;;;;;;15.95;41.17;102654.81;5025831;28;1091;-51
2024/01/29 01:45:09;;;;;;;;;;;;;;;17.34;38.28;102648.06;5036072;28;1055;-52
2024/01/29 01:47:35;;;;;;;;;;;;;;;16.98;38.76;102638.81;5023894;28;2731;-52
2024/01/29 01:50:01;;;;;;;;;;;;;;;16.18;40.63;102635.00;5028257;28;1189;-55
2024/01/29 01:52:27;;;;;;;;;;;;;;;15.73;41.60;102634.06;5029410;28;1965;-53
2024/01/29 01:54:53;;;;;;;;;;;;;;;15.48;41.93;102627.72;5018437;28;1146;-54
2024/01/29 01:57:18;;;;;;;;;;;;;;;16.61;39.72;102628.66;5016987;28;1147;-54
2024/01/29 01:59:44;;;;;;;;;;;;;;;17.58;37.91;102626.97;5016375;28;1032;-54
2024/01/29 02:02:09;;;;;;;;;;;;;;;16.71;39.39;102617.97;5029103;28;866;-54
2024/01/29 02:04:35;;;;;;;;;;;;;;;16.04;40.78;102632.38;5031725;28;993;-55
2024/01/29 02:07:01;;;;;;;;;;;;;;;15.64;41.66;102629.94;5017681;28;1020;-55
2024/01/29 02:09:26;;;;;;;;;;;;;;;15.66;41.69;102632.47;5021747;28;1063;-54
2024/01/29 02:11:52;;;;;;;;;;;;;;;17.17;38.54;102625.91;5024786;28;1166;-54
2024/01/29 02:14:17;;;;;;;;;;;;;;;17.49;37.79;102631.13;5018013;28;1909;-55
2024/01/29 02:16:43;;;;;;;;;;;;;;;16.33;40.05;102624.50;5017215;28;2453;-53
2024/01/29 02:19:15;;;;;;;;;;;;;;;15.88;41.18;102624.72;5030403;28;1153;-54
2024/01/29 02:21:41;;;;;;;;;;;;;;;15.65;41.64;102619.78;5028860;28;1144;-55
2024/01/29 02:24:06;;;;;;;;;;;;;;;16.46;39.92;102614.47;5018572;28;1131;-56
2024/01/29 02:26:32;;;;;;;;;;;;;;;17.59;37.82;102613.00;5030931;28;927;-52
2024/01/29 02:28:57;;;;;;;;;;;;;;;16.62;39.61;102608.38;5031564;28;1003;-53
2024/01/29 02:31:23;;;;;;;;;;;;;;;16.05;40.99;102625.00;5017186;28;1090;-54
2024/01/29 02:33:49;;;;;;;;;;;;;;;15.61;41.96;102615.81;5016823;28;1910;-55
2024/01/29 02:36:15;;;;;;;;;;;;;;;16.47;40.02;102630.72;5028541;28;1183;-54
2024/01/29 02:38:42;;;;;;;;;;;;;;;17.65;37.76;102627.72;5035407;28;933;-53
2024/01/29 02:41:08;;;;;;;;;;;;;;;16.63;39.61;102629.25;5025003;28;1111;-54
2024/01/29 02:43:33;;;;;;;;;;;;;;;15.97;41.08;102639.81;5035537;28;1146;-54
2024/01/29 02:45:59;;;;;;;;;;;;;;;15.63;41.78;102632.91;5035849;28;2604;-54
2024/01/29 02:48:24;;;;;;;;;;;;;;;15.54;42.05;102635.06;5017163;28;1064;-54
2024/01/29 02:50:50;;;;;;;;;;;;;;;17.10;38.85;102635.06;5035048;28;1301;-54
2024/01/29 02:53:15;;;;;;;;;;;;;;;17.38;37.99;102643.78;5023572;28;1977;-54
2024/01/29 02:55:41;;;;;;;;;;;;;;;16.26;40.44;102642.97;5036378;28;1011;-52
2024/01/29 02:58:06;;;;;;;;;;;;;;;15.81;41.15;102656.84;5035993;28;1226;-54
2024/01/29 03:00:32;;;;;;;;;;;;;;;15.53;42.13;102661.63;5035957;28;1042;-51
2024/01/29 03:02:57;;;;;;;;;;;;;;;16.82;39.49;102662.25;5034556;28;895;-52
2024/01/29 03:05:23;;;;;;;;;;;;;;;17.61;37.55;102667.75;5036139;28;1054;-52
2024/01/29 03:07:48;;;;;;;;;;;;;;;16.51;39.76;102669.53;5031229;28;1039;-53
2024/01/29 03:10:14;;;;;;;;;;;;;;;15.94;40.91;102664.97;5028093;28;1198;-52
2024/01/29 03:12:40;;;;;;;;;;;;;;;15.64;41.87;102665.59;5035537;28;1905;-53
2024/01/29 03:15:05;;;;;;;;;;;;;;;16.02;41.08;102669.31;5015799;28;890;-52
2024/01/29 03:17:31;;;;;;;;;;;;;;;17.38;37.99;102668.53;5020418;28;2411;-53
2024/01/29 03:19:56;;;;;;;;;;;;;;;16.87;39.15;102670.63;5024917;28;1017;-53
2024/01/29 03:22:22;;;;;;;;;;;;;;;16.03;40.84;102669.13;5035746;28;1139;-52
2024/01/29 03:24:47;;;;;;;;;;;;;;;15.69;41.53;102665.75;5029082;28;1134;-51
2024/01/29 03:27:13;;;;;;;;;;;;;;;16.61;39.83;102669.84;5029200;28;1044;-50
2024/01/29 03:29:38;;;;;;;;;;;;;;;17.69;37.31;102666.59;5039893;28;1090;-51
2024/01/29 03:32:04;;;;;;;;;;;;;;;16.56;39.80;102658.69;5035487;28;1086;-49
2024/01/29 03:34:30;;;;;;;;;;;;;;;16.00;41.00;102671.47;5031963;28;1967;-50
2024/01/29 03:36:55;;;;;;;;;;;;;;;15.67;41.64;102665.13;5034537;28;1011;-51
2024/01/29 03:39:21;;;;;;;;;;;;;;;16.64;39.76;102677.63;5039484;28;1036;-52
2024/01/29 03:41:46;;;;;;;;;;;;;;;17.68;37.73;102685.00;5039914;28;1074;-50
2024/01/29 03:44:14;;;;;;;;;;;;;;;16.57;39.57;102668.63;5039684;28;1051;-49
2024/01/29 03:46:39;;;;;;;;;;;;;;;15.94;40.98;102670.47;5037500;28;2524;-52
2024/01/29 03:49:05;;;;;;;;;;;;;;;15.62;41.60;102678.66;5038064;28;1149;-52
2024/01/29 03:51:30;;;;;;;;;;;;;;;16.51;40.13;102677.75;5019843;28;1015;-48
2024/01/29 03:53:56;;;;;;;;;;;;;;;17.62;37.73;102683.22;5029743;28;1910;-50
2024/01/29 03:56:21;;;;;;;;;;;;;;;16.64;39.49;102677.63;5035440;28;1034;-52
2024/01/29 03:58:47;;;;;;;;;;;;;;;16.01;40.68;102684.97;5029903;28;1086;-51
2024/01/29 04:01:12;;;;;;;;;;;;;;;15.71;41.58;102671.00;5024479;28;1082;-51
2024/01/29 04:03:39;;;;;;;;;;;;;;;16.75;39.30;102678.78;5030024;28;1132;-54
2024/01/29 04:06:05;;;;;;;;;;;;;;;17.62;37.55;102667.53;5022305;28;1128;-53
2024/01/29 04:08:31;;;;;;;;;;;;;;;16.51;39.55;102677.75;5019445;28;1047;-52
2024/01/29 04:10:56;;;;;;;;;;;;;;;15.87;40.87;102677.91;5023994;28;1148;-52
2024/01/29 04:13:22;;;;;;;;;;;;;;;15.56;41.79;102682.31;5029705;28;2060;-54
2024/01/29 04:15:47;;;;;;;;;;;;;;;16.20;40.41;102690.50;5038819;28;1054;-51
2024/01/29 04:18:13;;;;;;;;;;;;;;;17.50;37.75;102694.19;5031433;28;2798;-53
2024/01/29 04:20:38;;;;;;;;;;;;;;;16.94;38.75;102687.88;5026129;28;1132;-53
2024/01/29 04:23:04;;;;;;;;;;;;;;;16.13;40.66;102695.22;5039116;28;1008;-49
2024/01/29 04:25:29;;;;;;;;;;;;;;;15.79;41.15;102698.19;5023292;28;948;-53
2024/01/29 04:27:55;;;;;;;;;;;;;;;15.49;42.03;102709.75;5027399;28;1166;-54
2024/01/29 04:30:20;;;;;;;;;;;;;;;16.87;39.08;102720.06;5019093;28;1048;-52
2024/01/29 04:32:46;;;;;;;;;;;;;;;17.69;37.33;102716.13;5029458;28;1985;-52
2024/01/29 04:35:11;;;;;;;;;;;;;;;16.52;39.72;102717.91;5024458;28;1143;-52
2024/01/29 04:37:37;;;;;;;;;;;;;;;16.01;40.71;102728.88;5045404;28;1148;-51
2024/01/29 04:40:03;;;;;;;;;;;;;;;15.63;41.66;102724.22;5037774;28;1071;-53
2024/01/29 04:42:28;;;;;;;;;;;;;;;16.81;39.22;102732.81;5038465;28;1031;-54
2024/01/29 04:44:54;;;;;;;;;;;;;;;17.58;37.42;102739.75;5038638;28;1119;-52
2024/01/29 04:47:20;;;;;;;;;;;;;;;16.49;39.87;102732.91;5037662;28;2830;-47
2024/01/29 04:49:45;;;;;;;;;;;;;;;15.90;41.14;102743.31;5035996;28;1103;-48
2024/01/29 04:52:11;;;;;;;;;;;;;;;15.55;41.86;102746.41;5036972;28;1219;-52
2024/01/29 04:54:36;;;;;;;;;;;;;;;16.64;39.83;102742.72;5019913;28;1997;-55
2024/01/29 04:57:02;;;;;;;;;;;;;;;17.64;37.58;102740.75;5018488;28;1017;-50
2024/01/29 04:59:28;;;;;;;;;;;;;;;16.62;39.64;102747.59;5021425;28;1175;-48
2024/01/29 05:01:53;;;;;;;;;;;;;;;15.92;40.97;102749.38;5029724;28;969;-51
2024/01/29 05:04:19;;;;;;;;;;;;;;;15.64;41.58;102747.00;5021265;28;1099;-49
2024/01/29 05:06:44;;;;;;;;;;;;;;;16.46;40.03;102740.78;5037303;28;1267;-53
2024/01/29 05:09:11;;;;;;;;;;;;;;;17.64;37.65;102747.06;5033566;28;1116;-50
2024/01/29 05:11:39;;;;;;;;;;;;;;;16.74;39.02;102738.38;5028262;28;921;-51
2024/01/29 05:14:05;;;;;;;;;;;;;;;16.11;40.29;102739.34;5022326;28;1910;-50
2024/01/29 05:16:32;;;;;;;;;;;;;;;15.73;41.42;102743.78;5022460;28;2108;-49
2024/01/29 05:18:58;;;;;;;;;;;;;;;16.38;40.38;102745.50;5019942;28;1027;-48
2024/01/29 05:21:23;;;;;;;;;;;;;;;17.43;37.78;102730.03;5027003;28;1313;-43
2024/01/29 05:23:49;;;;;;;;;;;;;;;16.14;40.59;102736.16;5027419;28;1103;-45
2024/01/29 05:26:14;;;;;;;;;;;;;;;15.67;41.34;102728.22;5023182;28;1027;-47
2024/01/29 05:28:40;;;;;;;;;;;;;;;15.98;41.09;102736.72;5018022;28;1059;-51
2024/01/29 05:31:05;;;;;;;;;;;;;;;16.56;39.51;102735.59;5030805;28;1155;-47
2024/01/29 05:33:31;;;;;;;;;;;;;;;15.71;41.31;102718.50;5026324;28;1964;-49
2024/01/29 05:35:56;;;;;;;;;;;;;;;16.86;39.15;102723.91;5035844;28;1123;-49
2024/01/29 05:38:22;;;;;;;;;;;;;;;17.02;38.69;102723.31;5018341;28;1126;-48
2024/01/29 05:40:47;;;;;;;;;;;;;;;16.08;40.62;102728.81;5030081;28;1033;-51
2024/01/29 05:43:13;;;;;;;;;;;;;;;15.64;41.31;102723.19;5017564;28;1064;-47
2024/01/29 05:45:38;;;;;;;;;;;;;;;16.81;39.33;102732.00;5016968;28;1048;-46
2024/01/29 05:48:07;;;;;;;;;;;;;;;16.65;39.29;102734.25;5017865;28;2220;-49
2024/01/29 05:50:32;;;;;;;;;;;;;;;15.87;40.71;102727.28;5030028;28;1206;-49
2024/01/29 05:52:58;;;;;;;;;;;;;;;15.58;41.41;102740.50;5025527;28;1914;-50
2024/01/29 05:55:23;;;;;;;;;;;;;;;17.17;38.50;102742.19;5023236;28;1107;-50
2024/01/29 05:57:49;;;;;;;;;;;;;;;16.54;39.33;102748.72;5020173;28;1104;-47
2024/01/29 06:00:15;;;;;;;;;;;;;;;15.95;40.85;102746.22;5028327;28;1078;-50
2024/01/29 06:02:45;;;;;;;;;;;;;;;17.00;38.94;102744.72;5017235;28;1004;-48
2024/01/29 06:05:11;;;;;;;;;;;;;;;16.11;40.28;102742.09;5024329;28;1215;-44
2024/01/29 06:07:37;;;;;;;;;;;;;;;15.71;41.26;102743.19;5022654;28;1212;-43
2024/01/29 06:10:03;;;;;;;;;;;;;;;17.23;38.08;102751.41;5025538;28;987;-43
2024/01/29 06:12:28;;;;;;;;;;;;;;;16.13;40.40;102758.34;5020958;28;1906;-48
2024/01/29 06:14:54;;;;;;;;;;;;;;;16.47;40.02;102754.28;5017227;28;1021;-44
2024/01/29 06:17:19;;;;;;;;;;;;;;;16.84;38.97;102759.00;5025726;28;2006;-46
2024/01/29 06:19:45;;;;;;;;;;;;;;;16.35;39.88;102756.06;5016702;28;993;-46
2024/01/29 06:22:10;;;;;;;;;;;;;;;17.87;36.79;102759.28;5030187;28;1048;-44
2024/01/29 06:24:36;;;;;;;;;;;;;;;16.80;39.10;102768.75;5017170;28;1111;-46
2024/01/29 06:27:01;;;;;;;;;;;;;;;16.13;40.62;102767.44;5025331;28;1000;-43
2024/01/29 06:29:27;;;;;;;;;;;;;;;16.68;39.32;102769.50;5017072;28;1120;-45
2024/01/29 06:31:52;;;;;;;;;;;;;;;17.23;38.14;102767.91;5030175;28;977;-45
2024/01/29 06:34:18;;;;;;;;;;;;;;;16.25;40.32;102767.53;5017017;28;1906;-47
2024/01/29 06:36:44;;;;;;;;;;;;;;;16.57;39.62;102773.00;5017060;28;1020;-47
2024/01/29 06:39:09;;;;;;;;;;;;;;;17.61;37.49;102764.91;5019726;28;2220;-47
2024/01/29 06:41:35;;;;;;;;;;;;;;;16.42;39.90;102774.19;5017524;28;1246;-45
2024/01/29 06:44:00;;;;;;;;;;;;;;;16.10;40.68;102781.56;5026528;28;1052;-47
2024/01/29 06:46:26;;;;;;;;;;;;;;;17.75;37.34;102771.06;5021964;28;1327;-47
2024/01/29 06:48:51;;;;;;;;;;;;;;;16.62;39.59;102780.56;5025832;28;1137;-43
2024/01/29 06:51:17;;;;;;;;;;;;;;;16.36;40.00;102766.81;5023261;28;1056;-47
2024/01/29 06:53:42;;;;;;;;;;;;;;;17.23;38.37;102762.41;5020792;28;1914;-45
2024/01/29 06:56:08;;;;;;;;;;;;;;;16.33;40.08;102767.28;5022864;28;1353;-44
2024/01/29 06:58:36;;;;;;;;;;;;;;;16.76;39.21;102768.41;5025625;28;1442;-46
2024/01/29 07:01:02;;;;;;;;;;;;;;;16.69;39.19;102779.44;5023303;28;1127;-43
2024/01/29 07:03:28;;;;;;;;;;;;;;;16.13;40.42;102769.31;5018997;28;999;-46
2024/01/29 07:05:53;;;;;;;;;;;;;;;17.58;37.45;102761.78;5016987;28;1170;-49
2024/01/29 07:08:19;;;;;;;;;;;;;;;16.90;38.88;102761.72;5018612;28;1140;-48
2024/01/29 07:10:44;;;;;;;;;;;;;;;16.16;40.23;102757.88;5033085;28;1007;-45
2024/01/29 07:13:10;;;;;;;;;;;;;;;16.32;40.21;102767.50;5022340;28;1902;-45
2024/01/29 07:15:35;;;;;;;;;;;;;;;16.72;38.96;102767.16;5026730;28;870;-43
2024/01/29 07:18:01;;;;;;;;;;;;;;;16.20;40.40;102760.00;5029176;28;1215;-48
2024/01/29 07:20:29;;;;;;;;;;;;;;;17.89;37.05;102762.59;5026852;28;1164;-45
2024/01/29 07:22:55;;;;;;;;;;;;;;;16.71;39.16;102776.47;5018243;28;1059;-49
2024/01/29 07:25:21;;;;;;;;;;;;;;;17.13;38.46;102779.44;5016694;28;1171;-47
2024/01/29 07:27:46;;;;;;;;;;;;;;;17.41;37.53;102792.66;5021971;28;1161;-43
2024/01/29 07:30:12;;;;;;;;;;;;;;;16.42;39.67;102796.16;5019672;28;1124;-46
2024/01/29 07:32:38;;;;;;;;;;;;;;;16.17;40.45;102801.63;5019093;28;2005;-43
2024/01/29 07:35:04;;;;;;;;;;;;;;;16.83;39.00;102815.00;5016748;28;1071;-47
2024/01/29 07:37:30;;;;;;;;;;;;;;;16.54;39.33;102815.47;5016776;28;1155;-48
2024/01/29 07:39:55;;;;;;;;;;;;;;;17.53;37.79;102816.63;5023579;28;1299;-48
2024/01/29 07:42:21;;;;;;;;;;;;;;;17.98;36.37;102820.94;5025174;28;1167;-50
2024/01/29 07:44:47;;;;;;;;;;;;;;;16.75;39.15;102827.97;5016289;28;1186;-50
2024/01/29 07:47:13;;;;;;;;;;;;;;;16.36;40.17;102832.72;5021443;28;1012;-49
2024/01/29 07:49:38;;;;;;;;;;;;;;;17.47;37.71;102839.56;5023727;28;1227;-46
2024/01/29 07:52:04;;;;;;;;;;;;;;;16.48;39.72;102840.25;5029255;28;1159;-44
2024/01/29 07:54:30;;;;;;;;;;;;;;;17.52;37.72;102842.47;5016217;28;1971;-45
2024/01/29 07:56:55;;;;;;;;;;;;;;;17.04;38.53;102844.88;5032597;28;1421;-48
2024/01/29 07:59:21;;;;;;;;;;;;;;;16.44;40.01;102850.84;5034737;28;1392;-46
2024/01/29 08:01:46;;;;;;;;;;;;;;;16.10;40.40;102858.41;5029024;28;1450;-46
2024/01/29 08:04:12;;;;;;;;;;;;;;;15.92;40.79;102850.91;5021440;28;1417;-50
2024/01/29 08:06:37;;;;;;;;;;;;;;;17.24;38.33;102855.66;5021857;28;1130;-47
2024/01/29 08:09:06;;;;;;;;;;;;;;;16.13;40.54;102858.00;5023116;28;1149;-46
2024/01/29 08:11:32;;;;;;;;;;;;;;;17.40;37.87;102869.88;5026040;28;1329;-49
2024/01/29 08:13:58;;;;;;;;;;;;;;;16.85;38.85;102868.69;5019716;28;1969;-45
2024/01/29 08:16:24;;;;;;;;;;;;;;;16.21;40.29;102870.63;5019093;28;1048;-45
2024/01/29 08:18:50;;;;;;;;;;;;;;;17.41;37.81;102883.41;5027205;28;1091;-48
2024/01/29 08:21:16;;;;;;;;;;;;;;;16.36;39.91;102882.13;5029925;28;1124;-46
2024/01/29 08:23:42;;;;;;;;;;;;;;;17.67;37.64;102880.59;5026018;28;1315;-45
2024/01/29 08:26:07;;;;;;;;;;;;;;;17.32;37.96;102892.19;5024880;28;936;-49
2024/01/29 08:28:33;;;;;;;;;;;;;;;16.35;40.08;102882.38;5020784;28;857;-49
2024/01/29 08:30:59;;;;;;;;;;;;;;;16.09;40.50;102889.69;5029980;28;1091;-48
2024/01/29 08:33:25;;;;;;;;;;;;;;;16.90;39.00;102882.63;5030090;28;1983;-46
2024/01/29 08:35:50;;;;;;;;;;;;;;;17.22;38.24;102899.06;5020512;28;1116;-46
2024/01/29 08:38:16;;;;;;;;;;;;;;;16.36;39.92;102895.03;5029403;28;1495;-46
2024/01/29 08:40:41;;;;;;;;;;;;;;;15.96;40.78;102907.03;5031598;28;1120;-49
2024/01/29 08:43:07;;;;;;;;;;;;;;;17.19;38.54;102898.66;5023097;28;1448;-47
2024/01/29 08:45:34;;;;;;;;;;;;;;;16.88;38.66;102903.97;5029600;28;1249;-47
2024/01/29 08:47:59;;;;;;;;;;;;;;;16.23;40.03;102912.44;5036292;28;1308;-46
2024/01/29 08:50:26;;;;;;;;;;;;;;;17.66;37.62;102917.44;5030579;28;1074;-44
2024/01/29 08:52:51;;;;;;;;;;;;;;;16.82;38.86;102917.75;5018757;28;1910;-50
2024/01/29 08:55:17;;;;;;;;;;;;;;;16.23;40.05;102906.94;5029341;28;1329;-46
2024/01/29 08:57:42;;;;;;;;;;;;;;;17.83;37.06;102914.91;5024435;28;1380;-48
2024/01/29 09:00:08;;;;;;;;;;;;;;;16.71;39.34;102920.16;5033953;28;1374;-49
2024/01/29 09:02:33;;;;;;;;;;;;;;;16.60;39.31;102926.34;5023417;28;1706;-46
2024/01/29 09:04:59;;;;;;;;;;;;;;;17.28;38.03;102914.63;5026195;28;1420;-48
2024/01/29 09:07:25;;;;;;;;;;;;;;;16.49;39.87;102916.91;5031301;28;1615;-45
2024/01/29 09:09:50;;;;;;;;;;;;;;;16.57;39.83;102918.56;5021686;28;995;-43
2024/01/29 09:12:16;;;;;;;;;;;;;;;18.00;36.49;102910.47;5031300;28;1443;-45
2024/01/29 09:14:41;;;;;;;;;;;;;;;16.67;39.29;102916.16;5020739;28;1906;-47
2024/01/29 09:17:07;;;;;;;;;;;;;;;16.37;39.98;102914.03;5020950;28;1150;-48
2024/01/29 09:19:32;;;;;;;;;;;;;;;18.12;36.42;102903.13;5027267;28;1063;-45
2024/01/29 09:21:58;;;;;;;;;;;;;;;16.78;39.12;102898.13;5028501;28;1150;-49
2024/01/29 09:24:24;;;;;;;;;;;;;;;17.77;37.12;102903.75;5026435;28;1044;-46
2024/01/29 09:26:50;;;;;;;;;;;;;;;17.71;36.91;102899.19;5027085;28;1107;-50
2024/01/29 09:29:16;;;;;;;;;;;;;;;16.76;38.96;102901.09;5026059;28;1056;-46
2024/01/29 09:31:43;;;;;;;;;;;;;;;16.82;39.17;102888.38;5023034;28;1160;-46
2024/01/29 09:34:08;;;;;;;;;;;;;;;17.30;37.99;102878.66;5025043;28;1979;-47
2024/01/29 09:36:34;;;;;;;;;;;;;;;16.58;39.39;102892.78;5029542;28;1357;-45
2024/01/29 09:38:59;;;;;;;;;;;;;;;16.22;39.93;102888.78;5018723;28;1280;-49
2024/01/29 09:41:25;;;;;;;;;;;;;;;17.10;38.72;102887.94;5022105;28;1211;-48
2024/01/29 09:43:51;;;;;;;;;;;;;;;16.99;38.39;102888.69;5034282;28;1000;-48
2024/01/29 09:46:16;;;;;;;;;;;;;;;16.25;40.05;102882.84;5028404;28;1385;-45
2024/01/29 09:48:42;;;;;;;;;;;;;;;17.65;37.33;102882.75;5033193;28;1753;-49
2024/01/29 09:51:08;;;;;;;;;;;;;;;17.12;38.43;102884.13;5026181;28;1453;-46
2024/01/29 09:53:34;;;;;;;;;;;;;;;16.40;39.69;102891.63;5021949;28;1981;-44
2024/01/29 09:55:59;;;;;;;;;;;;;;;17.73;37.37;102888.78;5030337;28;1277;-45
2024/01/29 09:58:25;;;;;;;;;;;;;;;16.64;39.23;102880.06;5026947;28;994;-47
2024/01/29 10:00:50;;;;;;;;;;;;;;;16.76;39.16;102890.09;5026863;28;1561;-48
2024/01/29 10:03:20;;;;;;;;;;;;;;;17.51;37.41;102884.78;5027799;28;1138;-49
2024/01/29 10:05:45;;;;;;;;;;;;;;;16.51;39.71;102891.97;5023316;28;1199;-46
2024/01/29 10:08:11;;;;;;;;;;;;;;;16.22;40.25;102889.59;5029906;28;925;-49
2024/01/29 10:10:36;;;;;;;;;;;;;;;16.98;38.97;102884.25;5029358;28;1096;-47
2024/01/29 10:13:05;;;;;;;;;;;;;;;17.09;38.38;102883.50;5026655;28;1910;-46
2024/01/29 10:15:31;;;;;;;;;;;;;;;16.65;39.35;102881.72;5021684;28;1391;-46
2024/01/29 10:17:56;;;;;;;;;;;;;;;18.22;36.31;102875.03;5016967;28;1213;-50
2024/01/29 10:20:22;;;;;;;;;;;;;;;16.97;38.77;102873.47;5039246;28;1321;-46
2024/01/29 10:22:48;;;;;;;;;;;;;;;17.74;37.20;102878.59;5023727;28;1471;-46
2024/01/29 10:25:14;;;;;;;;;;;;;;;17.70;37.07;102867.22;5017021;28;1055;-46
2024/01/29 10:27:40;;;;;;;;;;;;;;;16.73;39.18;102874.06;5035677;28;1204;-46
2024/01/29 10:30:06;;;;;;;;;;;;;;;16.42;39.82;102867.53;5021971;28;1091;-47
2024/01/29 10:32:32;;;;;;;;;;;;;;;17.56;37.92;102876.72;5016280;28;1157;-46
2024/01/29 10:34:57;;;;;;;;;;;;;;;17.04;38.58;102875.13;5017417;28;1973;-47
2024/01/29 10:37:23;;;;;;;;;;;;;;;16.49;39.64;102872.13;5016767;28;1052;-48
2024/01/29 10:39:48;;;;;;;;;;;;;;;16.17;40.28;102880.34;5015662;28;1163;-49
2024/01/29 10:42:14;;;;;;;;;;;;;;;17.72;37.45;102880.75;5015677;28;1150;-49
2024/01/29 10:44:40;;;;;;;;;;;;;;;17.00;38.65;102871.13;5029031;28;1106;-52
2024/01/29 10:47:08;;;;;;;;;;;;;;;16.34;40.05;102869.69;5031307;28;996;-48
2024/01/29 10:49:34;;;;;;;;;;;;;;;16.21;40.08;102876.09;5017086;28;1227;-51
2024/01/29 10:52:01;;;;;;;;;;;;;;;17.49;37.75;102865.78;5028704;28;1201;-52
2024/01/29 10:54:26;;;;;;;;;;;;;;;17.23;38.08;102877.88;5015410;28;1906;-50
2024/01/29 10:56:52;;;;;;;;;;;;;;;16.57;39.59;102869.94;5016333;28;1036;-49
2024/01/29 10:59:20;;;;;;;;;;;;;;;17.40;38.11;102872.63;5016456;28;1227;-44
2024/01/29 11:01:45;;;;;;;;;;;;;;;17.07;38.39;102873.81;5018951;28;1013;-48
2024/01/29 11:04:11;;;;;;;;;;;;;;;16.27;40.32;102866.16;5032449;28;1395;-51
2024/01/29 11:06:37;;;;;;;;;;;;;;;17.86;37.22;102864.91;5024071;28;1139;-48
2024/01/29 11:09:03;;;;;;;;;;;;;;;16.75;39.10;102871.09;5017640;28;1040;-50
2024/01/29 11:11:29;;;;;;;;;;;;;;;17.60;37.85;102859.50;5016393;28;1004;-50
2024/01/29 11:13:55;;;;;;;;;;;;;;;17.45;37.81;102848.88;5008351;28;1976;-51
2024/01/29 11:16:21;;;;;;;;;;;;;;;16.68;39.48;102849.16;5028541;28;1200;-51
2024/01/29 11:18:47;;;;;;;;;;;;;;;18.07;36.93;102839.66;5016581;28;873;-51
2024/01/29 11:21:14;;;;;;;;;;;;;;;17.05;38.59;102853.94;5026409;28;1473;-50
2024/01/29 11:23:40;;;;;;;;;;;;;;;17.23;38.48;102837.47;5026979;28;1333;-48
2024/01/29 11:26:10;;;;;;;;;;;;;;;17.74;37.42;102829.06;5032805;28;1492;-47
2024/01/29 11:28:35;;;;;;;;;;;;;;;16.91;39.14;102831.25;5022496;28;1078;-49
2024/01/29 11:31:07;;;;;;;;;;;;;;;17.33;38.13;102811.38;5022242;28;1236;-48
2024/01/29 11:33:32;;;;;;;;;;;;;;;17.59;37.28;102815.72;5021964;28;1910;-46
2024/01/29 11:36:04;;;;;;;;;;;;;;;16.73;39.44;102810.88;5022738;28;1329;-48
2024/01/29 11:38:30;;;;;;;;;;;;;;;17.09;38.68;102808.47;5021100;28;1289;-48
2024/01/29 11:40:58;;;;;;;;;;;;;;;17.38;37.83;102797.78;5020304;28;1130;-46
2024/01/29 11:43:24;;;;;;;;;;;;;;;16.67;39.24;102792.53;5033845;28;1176;-48
2024/01/29 11:45:50;;;;;;;;;;;;;;;16.25;40.11;102795.00;5030635;28;1337;-49
2024/01/29 11:48:16;;;;;;;;;;;;;;;16.63;39.56;102785.81;5032258;28;1147;-49
2024/01/29 11:50:44;;;;;;;;;;;;;;;18.21;36.65;102789.91;5025927;28;1041;-49
2024/01/29 11:53:13;;;;;;;;;;;;;;;16.98;38.63;102781.72;5026265;28;1985;-49
2024/01/29 11:55:38;;;;;;;;;;;;;;;16.53;39.81;102780.00;5026569;28;1191;-51
2024/01/29 11:58:06;;;;;;;;;;;;;;;17.45;37.96;102771.03;5034620;28;1163;-52
2024/01/29 12:00:31;;;;;;;;;;;;;;;17.70;37.41;102767.34;5024383;28;1151;-50
2024/01/29 12:02:57;;;;;;;;;;;;;;;16.77;39.29;102773.66;5023875;28;1286;-52
2024/01/29 12:05:22;;;;;;;;;;;;;;;17.38;38.06;102765.63;5028014;28;1430;-51
2024/01/29 12:07:48;;;;;;;;;;;;;;;17.00;38.61;102766.69;5036462;28;1405;-48
2024/01/29 12:10:16;;;;;;;;;;;;;;;16.61;39.64;102760.50;5037602;28;1278;-51
2024/01/29 12:12:42;;;;;;;;;;;;;;;17.86;36.91;102765.84;5033750;28;1984;-53
2024/01/29 12:15:08;;;;;;;;;;;;;;;16.83;38.97;102763.66;5026209;28;1337;-51
2024/01/29 12:17:36;;;;;;;;;;;;;;;17.15;38.79;102774.53;5018454;28;1164;-52
2024/01/29 12:20:01;;;;;;;;;;;;;;;18.55;35.77;102759.91;5019267;28;1192;-49
2024/01/29 12:22:27;;;;;;;;;;;;;;;17.15;38.30;102760.78;5029924;28;1462;-52
2024/01/29 12:24:53;;;;;;;;;;;;;;;16.67;39.60;102753.25;5019118;28;1067;-49
2024/01/29 12:27:18;;;;;;;;;;;;;;;18.34;36.34;102755.81;5030900;28;1466;-48
2024/01/29 12:29:44;;;;;;;;;;;;;;;17.03;38.68;102759.91;5021783;28;1181;-49
2024/01/29 12:32:13;;;;;;;;;;;;;;;16.72;39.29;102757.00;5019165;28;1088;-51
2024/01/29 12:34:44;;;;;;;;;;;;;;;18.21;36.36;102745.84;5032563;28;1971;-48
2024/01/29 12:37:21;;;;;;;;;;;;;;;17.02;38.57;102760.97;5018959;28;1000;-51
2024/01/29 12:39:55;;;;;;;;;;;;;;;16.70;39.42;102766.53;5019238;28;1496;-51